Ater, Texas
Current Conditions -  °F | °C
As of 8:15 PM on Thursday 20 Nov 2014 (Local Time) from KGOP Reporting Station
Broken Clouds Broken Clouds  
Wind Chill: 17°   Ceiling: 3000
Heat Index: 17°   Visibility: 10mi
Dew Point: 15°   Wind: 6mph
Humidity: 88%   Direction: 170°S
Pressure: 30.06"   Gusts: NA
Location:  31.392°N, 97.7452°W
Report Text: KGOP 210215Z AUTO 17005KT 10SM FEW019 SCT024 BKN030 17/15 A3006 RMK AO2 PWINO
Loading
Personal Weather Stations






























Interactive Weather Map New forecast layout! Learn more

10-Day Weather Forecast

Advertisements
Track Severe Weather on mobile